Terminal Aerodrome Forecast
Issued by NWS

Home | Current Version | Previous Version | Text Only | Print | Product List | Glossary On
Versions: 1 2 3 4 5 6 7 8 9 10 11 12 13 14 15
000
FTUS46 KSEW 021700
TAFPAE
TAF
KPAE 021722Z 0218/0318 34012KT P6SM SCT015 SCT080
     FM022000 34012KT P6SM SKC
      TEMPO 0220/0224 34012G20KT
     FM030200 01006KT P6SM SKC
     FM030600 VRB03KT P6SM SKC=

USA.gov is the U.S. government's official web portal to all federal, state and local government web resources and services.